createdAt,value
2017-09-28T00:01:12.244Z,39.60
2017-09-28T00:03:41.104Z,38.70
2017-09-28T00:06:09.186Z,37.73
2017-09-28T00:08:37.268Z,48.17
2017-09-28T00:11:05.360Z,42.00
2017-09-28T00:13:34.212Z,40.20
2017-09-28T00:16:02.294Z,43.67
2017-09-28T00:18:30.390Z,38.70
2017-09-28T00:20:59.248Z,36.50
2017-09-28T00:23:27.358Z,33.43
2017-09-28T00:25:56.424Z,33.30
2017-09-28T00:28:24.598Z,33.73
2017-09-28T00:30:52.683Z,31.20
2017-09-28T00:33:20.771Z,29.90
2017-09-28T00:35:49.640Z,27.97
2017-09-28T00:38:17.727Z,29.03
2017-09-28T00:40:46.585Z,26.40
2017-09-28T00:43:14.667Z,28.20
2017-09-28T00:45:42.764Z,26.13
2017-09-28T00:48:11.639Z,24.90
2017-09-28T00:50:39.723Z,23.73
2017-09-28T00:53:07.804Z,25.20
2017-09-28T00:55:36.660Z,23.30
2017-09-28T00:58:04.736Z,23.50
2017-09-28T01:00:33.004Z,23.93
2017-09-28T01:03:01.084Z,24.83
2017-09-28T01:05:29.175Z,26.50
2017-09-28T01:07:57.268Z,26.60
2017-09-28T01:10:26.121Z,33.77
2017-09-28T01:12:54.276Z,34.80
2017-09-28T01:15:22.362Z,33.80
2017-09-28T01:17:50.448Z,35.97
2017-09-28T01:20:18.518Z,38.07
2017-09-28T01:22:46.603Z,33.13
2017-09-28T01:25:14.680Z,31.63
2017-09-28T01:27:42.784Z,29.90
2017-09-28T01:30:10.875Z,25.97
2017-09-28T01:32:39.719Z,24.97
2017-09-28T01:35:07.812Z,25.20
2017-09-28T01:37:36.656Z,23.40
2017-09-28T01:40:04.739Z,20.33
2017-09-28T01:42:32.833Z,17.30
2017-09-28T01:45:01.689Z,21.87
2017-09-28T01:47:29.770Z,18.90
2017-09-28T01:49:57.856Z,20.77
2017-09-28T01:52:25.937Z,19.77
2017-09-28T01:54:54.035Z,17.93
2017-09-28T01:57:22.873Z,19.80
2017-09-28T01:59:50.957Z,20.73
2017-09-28T02:02:19.035Z,20.23
2017-09-28T02:04:47.144Z,20.50
2017-09-28T02:07:15.224Z,18.20
2017-09-28T02:09:43.312Z,21.73
2017-09-28T02:12:12.223Z,19.30
2017-09-28T02:14:40.300Z,21.10
2017-09-28T02:17:08.429Z,21.40
2017-09-28T02:19:37.264Z,21.93
2017-09-28T02:22:05.363Z,22.47
2017-09-28T02:24:33.439Z,21.17
2017-09-28T02:27:01.527Z,25.83
2017-09-28T02:29:30.371Z,28.13
2017-09-28T02:31:58.468Z,26.30
2017-09-28T02:34:26.547Z,29.97
2017-09-28T02:36:54.622Z,26.30
2017-09-28T02:39:23.514Z,25.60
2017-09-28T02:41:51.683Z,25.43
2017-09-28T02:44:19.761Z,25.20
2017-09-28T02:46:47.836Z,26.00
2017-09-28T02:49:16.700Z,25.03
2017-09-28T02:51:44.789Z,23.70
2017-09-28T02:54:12.880Z,22.00
2017-09-28T02:56:41.729Z,21.97
2017-09-28T02:59:09.816Z,22.40
2017-09-28T03:01:37.892Z,20.23
2017-09-28T03:04:05.984Z,20.40
2017-09-28T03:06:34.832Z,21.10
2017-09-28T03:09:02.935Z,21.30
2017-09-28T03:11:31.803Z,20.00
2017-09-28T03:13:59.880Z,26.60
2017-09-28T03:16:27.968Z,27.53
2017-09-28T03:18:56.035Z,23.90
2017-09-28T03:21:24.120Z,25.70
2017-09-28T03:23:52.191Z,28.50
2017-09-28T03:26:20.281Z,26.43
2017-09-28T03:28:49.178Z,28.37
2017-09-28T03:31:18.044Z,30.17
2017-09-28T03:33:46.122Z,32.30
2017-09-28T03:36:14.204Z,27.50
2017-09-28T03:38:43.061Z,26.80
2017-09-28T03:41:11.167Z,35.77
2017-09-28T03:43:40.029Z,41.13
2017-09-28T03:46:08.138Z,52.77
2017-09-28T03:48:36.992Z,51.33
2017-09-28T03:51:05.076Z,47.13
2017-09-28T03:53:33.180Z,46.27
2017-09-28T03:56:02.032Z,42.47
2017-09-28T03:58:30.144Z,38.30
2017-09-28T04:00:59.007Z,38.37
2017-09-28T04:03:27.096Z,36.93
2017-09-28T04:05:55.964Z,36.70
2017-09-28T04:08:24.070Z,36.37
2017-09-28T04:10:52.927Z,39.73
2017-09-28T04:13:21.028Z,35.37
2017-09-28T04:15:49.880Z,31.17
2017-09-28T04:18:17.977Z,31.03
2017-09-28T04:20:46.055Z,29.63
2017-09-28T04:23:14.912Z,28.30
2017-09-28T04:25:43.011Z,28.17
2017-09-28T04:28:11.094Z,25.80
2017-09-28T04:30:39.954Z,25.77
2017-09-28T04:33:08.037Z,26.77
2017-09-28T04:35:36.140Z,25.70
2017-09-28T04:38:04.974Z,24.70
2017-09-28T04:40:33.292Z,23.37
2017-09-28T04:43:01.375Z,20.70
2017-09-28T04:45:30.227Z,23.10
2017-09-28T04:47:58.310Z,21.77
2017-09-28T04:50:26.407Z,22.27
2017-09-28T04:52:55.263Z,21.60
2017-09-28T04:55:23.351Z,19.80
2017-09-28T04:57:51.437Z,21.73
2017-09-28T05:00:19.511Z,21.20
2017-09-28T05:02:47.600Z,23.63
2017-09-28T05:05:16.448Z,24.43
2017-09-28T05:07:44.532Z,25.17
2017-09-28T05:10:12.620Z,25.53
2017-09-28T05:12:40.708Z,26.50
2017-09-28T05:15:09.552Z,24.03
2017-09-28T05:17:37.646Z,26.97
2017-09-28T05:20:05.726Z,23.70
2017-09-28T05:22:33.807Z,20.03
2017-09-28T05:25:02.676Z,23.13
2017-09-28T05:27:30.757Z,25.47
2017-09-28T05:29:58.840Z,23.20
2017-09-28T05:32:26.914Z,25.17
2017-09-28T05:34:55.771Z,27.43
2017-09-28T05:37:23.849Z,26.27
2017-09-28T05:39:51.930Z,23.63
2017-09-28T05:42:20.016Z,22.40
2017-09-28T05:44:48.146Z,20.87
2017-09-28T05:47:16.258Z,20.70
2017-09-28T05:49:44.378Z,21.17
2017-09-28T05:52:12.478Z,23.53
2017-09-28T05:54:40.565Z,21.90
2017-09-28T05:57:08.656Z,20.87
2017-09-28T05:59:36.739Z,21.00
2017-09-28T06:02:05.612Z,20.90
2017-09-28T06:04:33.689Z,20.73
2017-09-28T06:07:01.766Z,20.17
2017-09-28T06:09:30.621Z,20.87
2017-09-28T06:11:58.731Z,22.20
2017-09-28T06:14:27.601Z,20.77
2017-09-28T06:16:55.707Z,23.90
2017-09-28T06:19:24.569Z,24.17
2017-09-28T06:21:52.669Z,22.00
2017-09-28T06:24:21.537Z,20.23
2017-09-28T06:26:49.631Z,21.77
2017-09-28T06:29:18.491Z,22.17
2017-09-28T06:31:46.583Z,22.10
2017-09-28T06:34:14.655Z,22.93
2017-09-28T06:36:42.743Z,21.43
2017-09-28T06:39:11.597Z,23.20
2017-09-28T06:41:39.692Z,23.43
2017-09-28T06:44:07.768Z,20.40
2017-09-28T06:46:36.086Z,22.67
2017-09-28T06:49:04.164Z,21.10
2017-09-28T06:51:32.252Z,19.40
2017-09-28T06:54:00.336Z,19.50
2017-09-28T06:56:28.432Z,20.50
2017-09-28T06:58:56.511Z,22.00
2017-09-28T07:01:24.600Z,21.80
2017-09-28T07:03:53.440Z,20.50
2017-09-28T07:06:21.545Z,20.80
2017-09-28T07:08:50.408Z,18.87
2017-09-28T07:11:18.497Z,20.20
2017-09-28T07:13:46.584Z,19.83
2017-09-28T07:16:15.424Z,20.63
2017-09-28T07:18:43.517Z,20.30
2017-09-28T07:21:11.611Z,18.17
2017-09-28T07:23:39.712Z,20.50
2017-09-28T07:26:08.637Z,21.40
2017-09-28T07:28:36.733Z,22.57
2017-09-28T07:31:04.815Z,21.57
2017-09-28T07:33:32.905Z,19.70
2017-09-28T07:36:00.985Z,19.73
2017-09-28T07:38:29.864Z,22.50
2017-09-28T07:40:57.947Z,22.10
2017-09-28T07:43:26.805Z,21.47
2017-09-28T07:45:54.892Z,19.00
2017-09-28T07:48:22.988Z,20.37
2017-09-28T07:50:51.844Z,21.13
2017-09-28T07:53:19.940Z,21.10
2017-09-28T07:55:48.010Z,20.00
2017-09-28T07:58:16.092Z,20.87
2017-09-28T08:00:44.948Z,19.67
2017-09-28T08:03:13.036Z,18.77
2017-09-28T08:05:41.119Z,21.50
2017-09-28T08:08:09.983Z,21.60
2017-09-28T08:10:38.061Z,21.13
2017-09-28T08:13:06.152Z,21.50
2017-09-28T08:15:34.224Z,21.60
2017-09-28T08:18:02.320Z,22.83
2017-09-28T08:20:31.170Z,23.97
2017-09-28T08:22:59.247Z,23.00
2017-09-28T08:25:27.336Z,22.40
2017-09-28T08:27:55.426Z,22.90
2017-09-28T08:30:24.273Z,21.30
2017-09-28T08:32:52.373Z,20.63
2017-09-28T08:35:20.431Z,22.37
2017-09-28T08:37:48.525Z,22.00
2017-09-28T08:40:16.591Z,21.40
2017-09-28T08:42:45.452Z,20.53
2017-09-28T08:45:13.525Z,22.20
2017-09-28T08:47:41.623Z,21.50
2017-09-28T08:50:09.696Z,23.03
2017-09-28T08:52:37.775Z,22.00
2017-09-28T08:55:05.860Z,21.77
2017-09-28T08:57:34.712Z,21.97
2017-09-28T09:00:02.797Z,23.53
2017-09-28T09:02:30.893Z,25.17
2017-09-28T09:04:59.749Z,20.07
2017-09-28T09:07:28.056Z,20.80
2017-09-28T09:09:56.913Z,21.90
2017-09-28T09:12:25.000Z,21.00
2017-09-28T09:14:54.091Z,23.83
2017-09-28T09:17:22.177Z,22.60
2017-09-28T09:19:50.254Z,22.07
2017-09-28T09:22:18.340Z,20.30
2017-09-28T09:24:47.191Z,21.93
2017-09-28T09:27:15.280Z,22.07
2017-09-28T09:29:43.359Z,22.70
2017-09-28T09:32:11.443Z,22.90
2017-09-28T09:34:40.297Z,21.00
2017-09-28T09:37:08.389Z,21.30
2017-09-28T09:39:36.467Z,22.47
2017-09-28T09:42:04.572Z,23.60
2017-09-28T09:44:33.431Z,21.50
2017-09-28T09:47:01.504Z,21.30
2017-09-28T09:49:29.589Z,22.00
2017-09-28T09:51:58.432Z,20.60
2017-09-28T09:54:26.519Z,22.17
2017-09-28T09:56:54.617Z,21.80
2017-09-28T09:59:22.696Z,21.27
2017-09-28T10:01:51.553Z,21.03
2017-09-28T10:04:19.649Z,21.17
2017-09-28T10:06:52.146Z,22.43
2017-09-28T10:09:24.057Z,22.70
2017-09-28T10:11:59.228Z,22.87
2017-09-28T10:14:29.980Z,22.10
2017-09-28T10:16:58.843Z,21.93
2017-09-28T10:19:26.957Z,21.60
2017-09-28T10:21:55.796Z,23.33
2017-09-28T10:24:23.888Z,20.63
2017-09-28T10:26:51.967Z,22.67
2017-09-28T10:29:20.060Z,22.97
2017-09-28T10:31:48.913Z,22.50
2017-09-28T10:34:17.003Z,22.90
2017-09-28T10:36:45.869Z,22.10
2017-09-28T10:39:13.973Z,24.20
2017-09-28T10:41:42.055Z,25.53
2017-09-28T10:44:10.984Z,26.00
2017-09-28T10:46:39.092Z,26.43
2017-09-28T10:49:07.172Z,27.10
2017-09-28T10:51:35.313Z,28.57
2017-09-28T10:54:03.411Z,28.27
2017-09-28T10:56:31.505Z,27.60
2017-09-28T10:59:00.364Z,28.10
2017-09-28T11:01:28.450Z,28.60
2017-09-28T11:03:56.553Z,27.97
2017-09-28T11:06:25.401Z,28.33
2017-09-28T11:08:53.494Z,28.80
2017-09-28T11:11:21.581Z,29.53
2017-09-28T11:13:50.452Z,28.63
2017-09-28T11:16:18.528Z,28.80
2017-09-28T11:18:46.632Z,27.77
2017-09-28T11:21:15.493Z,27.30
2017-09-28T11:23:43.595Z,28.57
2017-09-28T11:26:12.205Z,26.87
2017-09-28T11:28:40.321Z,26.57
2017-09-28T11:31:08.400Z,24.93
2017-09-28T11:33:36.492Z,26.23
2017-09-28T11:36:05.340Z,22.50
2017-09-28T11:38:33.442Z,24.40
2017-09-28T11:41:01.527Z,22.73
2017-09-28T11:43:30.398Z,21.97
2017-09-28T11:45:58.489Z,23.17
2017-09-28T11:48:27.345Z,23.47
2017-09-28T11:50:55.436Z,22.90
2017-09-28T11:53:23.528Z,24.83
2017-09-28T11:55:52.401Z,22.07
2017-09-28T11:58:20.492Z,24.10
2017-09-28T12:00:49.352Z,22.37
2017-09-28T12:03:17.461Z,21.93
2017-09-28T12:05:46.331Z,22.37
2017-09-28T12:08:14.423Z,22.77
2017-09-28T12:10:43.284Z,24.90
2017-09-28T12:13:11.376Z,23.77
2017-09-28T12:15:40.229Z,25.63
2017-09-28T12:18:08.329Z,26.43
2017-09-28T12:20:36.430Z,23.80
2017-09-28T12:23:05.295Z,21.20
2017-09-28T12:25:34.408Z,24.50
2017-09-28T12:28:03.268Z,25.33
2017-09-28T12:30:31.355Z,22.03
2017-09-28T12:32:59.453Z,22.50
2017-09-28T12:35:27.560Z,24.67
2017-09-28T12:37:55.638Z,26.40
2017-09-28T12:40:23.736Z,22.20
2017-09-28T12:42:51.818Z,22.90
2017-09-28T12:45:20.701Z,22.00
2017-09-28T12:47:48.795Z,20.53
2017-09-28T12:50:17.677Z,20.93
2017-09-28T12:52:46.546Z,21.97
2017-09-28T12:55:14.656Z,21.40
2017-09-28T12:57:43.518Z,19.80
2017-09-28T13:00:11.619Z,19.83
2017-09-28T13:02:40.472Z,21.77
2017-09-28T13:05:08.566Z,18.33
2017-09-28T13:07:36.652Z,21.43
2017-09-28T13:10:05.521Z,21.27
2017-09-28T13:12:33.662Z,22.53
2017-09-28T13:15:02.721Z,22.00
2017-09-28T13:17:31.583Z,21.07
2017-09-28T13:19:59.672Z,18.90
2017-09-28T13:22:28.535Z,19.30
2017-09-28T13:24:56.625Z,18.97
2017-09-28T13:27:24.712Z,18.67
2017-09-28T13:29:53.588Z,20.87
2017-09-28T13:32:21.673Z,20.80
2017-09-28T13:34:50.547Z,19.87
2017-09-28T13:37:18.651Z,19.37
2017-09-28T13:39:47.537Z,19.47
2017-09-28T13:42:16.389Z,19.27
2017-09-28T13:44:45.191Z,19.20
2017-09-28T13:47:14.101Z,17.43
2017-09-28T13:49:42.981Z,19.00
2017-09-28T13:52:11.067Z,19.10
2017-09-28T13:54:39.938Z,18.07
2017-09-28T13:57:08.021Z,19.80
2017-09-28T13:59:36.119Z,19.00
2017-09-28T14:02:04.219Z,18.13
2017-09-28T14:04:32.325Z,17.60
2017-09-28T14:07:00.419Z,16.77
2017-09-28T14:09:29.305Z,17.40
2017-09-28T14:11:57.402Z,17.13
2017-09-28T14:14:25.512Z,17.70
2017-09-28T14:16:53.617Z,17.90
2017-09-28T14:19:21.718Z,18.63
2017-09-28T14:21:50.578Z,17.40
2017-09-28T14:24:18.687Z,17.87
2017-09-28T14:26:47.549Z,18.00
2017-09-28T14:29:15.653Z,19.30
2017-09-28T14:31:43.764Z,18.40
2017-09-28T14:34:11.861Z,19.47
2017-09-28T14:36:39.941Z,19.23
2017-09-28T14:39:08.038Z,19.50
2017-09-28T14:41:36.895Z,19.77
2017-09-28T14:44:04.999Z,19.53
2017-09-28T14:46:33.839Z,18.70
2017-09-28T14:49:01.919Z,18.30
2017-09-28T14:51:29.991Z,15.60
2017-09-28T14:54:08.654Z,17.00
2017-09-28T14:56:36.763Z,16.97
2017-09-28T14:59:04.840Z,18.57
2017-09-28T15:01:32.951Z,17.07
2017-09-28T15:04:01.028Z,15.97
2017-09-28T15:06:29.100Z,17.90
2017-09-28T15:08:57.972Z,17.20
2017-09-28T15:11:26.047Z,16.87
2017-09-28T15:13:54.139Z,17.20
2017-09-28T15:16:22.987Z,16.90
2017-09-28T15:18:51.072Z,16.93
2017-09-28T15:21:19.160Z,17.20
2017-09-28T15:23:47.243Z,15.90
2017-09-28T15:26:15.395Z,16.50
2017-09-28T15:28:43.474Z,16.60
2017-09-28T15:31:11.561Z,15.43
2017-09-28T15:33:39.639Z,16.53
2017-09-28T15:36:07.729Z,17.30
2017-09-28T15:38:36.555Z,17.13
2017-09-28T15:41:05.401Z,18.10
2017-09-28T15:43:34.275Z,17.17
2017-09-28T15:46:02.372Z,16.90
2017-09-28T15:48:31.227Z,15.80
2017-09-28T15:50:59.325Z,16.33
2017-09-28T15:53:28.180Z,17.13
2017-09-28T15:55:56.287Z,15.93
2017-09-28T15:58:25.146Z,19.30
2017-09-28T16:00:53.242Z,17.60
2017-09-28T16:03:21.316Z,16.30
2017-09-28T16:05:49.395Z,13.97
2017-09-28T16:08:17.476Z,16.90
2017-09-28T16:10:46.332Z,15.77
2017-09-28T16:13:14.406Z,15.70
2017-09-28T16:15:43.407Z,15.70
2017-09-28T16:18:11.480Z,15.83
2017-09-28T16:20:39.568Z,16.10
2017-09-28T16:23:07.639Z,16.93
2017-09-28T16:25:35.735Z,17.50
2017-09-28T16:28:04.577Z,16.30
2017-09-28T16:30:32.721Z,17.30
2017-09-28T16:33:00.805Z,15.80
2017-09-28T16:35:28.890Z,16.47
2017-09-28T16:37:56.980Z,18.23
2017-09-28T16:40:25.068Z,17.40
2017-09-28T16:42:53.170Z,17.43
2017-09-28T16:45:22.031Z,16.73
2017-09-28T16:47:50.112Z,17.70
2017-09-28T16:50:18.979Z,17.83
2017-09-28T16:52:47.067Z,19.07
2017-09-28T16:55:15.146Z,19.47
2017-09-28T16:57:44.010Z,19.20
2017-09-28T17:00:12.103Z,21.43
2017-09-28T17:02:40.176Z,18.73
2017-09-28T17:05:08.924Z,19.30
2017-09-28T17:07:37.012Z,20.10
2017-09-28T17:10:05.121Z,19.03
2017-09-28T17:12:33.975Z,19.97
2017-09-28T17:15:02.055Z,21.13
2017-09-28T17:17:30.131Z,24.70
2017-09-28T17:19:58.228Z,27.70
2017-09-28T17:22:27.069Z,34.50
2017-09-28T17:24:55.168Z,39.43
2017-09-28T17:27:23.239Z,28.90
2017-09-28T17:29:51.319Z,21.53
2017-09-28T17:32:19.396Z,21.37
2017-09-28T17:34:47.479Z,21.10
2017-09-28T17:37:16.331Z,21.30
2017-09-28T17:39:44.435Z,21.53
2017-09-28T17:42:12.504Z,20.87
2017-09-28T17:44:40.595Z,21.60
2017-09-28T17:47:09.431Z,22.10
2017-09-28T17:49:37.512Z,21.87
2017-09-28T17:52:05.605Z,21.00
2017-09-28T17:54:33.696Z,23.10
2017-09-28T17:57:02.546Z,21.87
2017-09-28T17:59:30.644Z,21.87
2017-09-28T18:01:58.722Z,26.17
2017-09-28T18:04:26.804Z,24.40
2017-09-28T18:06:55.660Z,40.13
2017-09-28T18:09:23.747Z,24.90
2017-09-28T18:11:51.829Z,31.90
2017-09-28T18:14:19.912Z,21.57
2017-09-28T18:16:48.755Z,20.53
2017-09-28T18:19:17.692Z,19.50
2017-09-28T18:21:45.767Z,18.77
2017-09-28T18:24:14.620Z,19.40
2017-09-28T18:26:42.714Z,24.80
2017-09-28T18:29:10.783Z,24.87
2017-09-28T18:31:38.872Z,23.70
2017-09-28T18:34:06.952Z,22.17
2017-09-28T18:36:35.804Z,21.30
2017-09-28T18:39:03.892Z,23.57
2017-09-28T18:41:31.980Z,20.70
2017-09-28T18:44:00.059Z,22.67
2017-09-28T18:46:28.912Z,32.00
2017-09-28T18:48:56.984Z,28.07
2017-09-28T18:51:25.076Z,44.77
2017-09-28T18:53:53.156Z,28.00
2017-09-28T18:56:21.244Z,24.87
2017-09-28T18:58:50.092Z,26.83
2017-09-28T19:01:18.183Z,28.10
2017-09-28T19:03:46.273Z,27.80
2017-09-28T19:06:15.142Z,32.70
2017-09-28T19:08:43.251Z,32.17
2017-09-28T19:11:12.108Z,30.50
2017-09-28T19:13:40.212Z,29.47
2017-09-28T19:16:09.084Z,27.57
2017-09-28T19:18:37.193Z,24.87
2017-09-28T19:21:05.316Z,25.17
2017-09-28T19:23:33.495Z,27.50
2017-09-28T19:26:01.605Z,36.73
2017-09-28T19:28:29.680Z,40.27
2017-09-28T19:30:57.840Z,30.83
2017-09-28T19:33:26.691Z,26.70
2017-09-28T19:35:54.794Z,25.40
2017-09-28T19:38:22.917Z,25.67
2017-09-28T19:40:51.013Z,25.70
2017-09-28T19:43:19.107Z,23.63
2017-09-28T19:45:47.252Z,22.50
2017-09-28T19:48:15.372Z,35.60
2017-09-28T19:50:44.227Z,32.23
2017-09-28T19:53:12.312Z,26.40
2017-09-28T19:55:40.400Z,24.40
2017-09-28T19:58:08.485Z,29.53
2017-09-28T20:00:37.347Z,44.10
2017-09-28T20:03:05.441Z,37.87
2017-09-28T20:05:34.312Z,45.07
2017-09-28T20:08:02.397Z,47.17
2017-09-28T20:10:30.490Z,55.20
2017-09-28T20:12:58.604Z,37.63
2017-09-28T20:15:26.701Z,34.20
2017-09-28T20:17:55.010Z,35.40
2017-09-28T20:20:23.881Z,31.50
2017-09-28T20:22:51.971Z,31.07
2017-09-28T20:25:20.957Z,27.60
2017-09-28T20:27:49.834Z,27.73
2017-09-28T20:30:17.929Z,29.67
2017-09-28T20:32:46.792Z,31.67
2017-09-28T20:35:14.887Z,30.83
2017-09-28T20:37:43.749Z,28.90
2017-09-28T20:40:11.839Z,27.70
2017-09-28T20:42:39.923Z,27.17
2017-09-28T20:45:08.788Z,26.10
2017-09-28T20:47:36.883Z,28.57
2017-09-28T20:50:05.756Z,31.10
2017-09-28T20:52:33.853Z,32.43
2017-09-28T20:55:02.727Z,32.97
2017-09-28T20:57:30.821Z,32.30
2017-09-28T20:59:59.680Z,29.37
2017-09-28T21:02:27.778Z,26.70
2017-09-28T21:04:56.623Z,25.67
2017-09-28T21:07:25.484Z,27.53
2017-09-28T21:09:53.558Z,25.93
2017-09-28T21:12:21.655Z,29.80
2017-09-28T21:14:49.753Z,32.17
2017-09-28T21:17:17.849Z,31.37
2017-09-28T21:19:45.932Z,30.83
2017-09-28T21:22:14.796Z,28.37
2017-09-28T21:24:42.911Z,24.77
2017-09-28T21:27:11.028Z,27.63
2017-09-28T21:29:39.122Z,28.50
2017-09-28T21:32:07.222Z,28.57
2017-09-28T21:34:36.093Z,29.20
2017-09-28T21:37:04.180Z,28.00
2017-09-28T21:39:33.045Z,29.30
2017-09-28T21:42:01.127Z,30.40
2017-09-28T21:44:29.212Z,30.63
2017-09-28T21:46:58.096Z,30.43
2017-09-28T21:49:26.180Z,31.00
2017-09-28T21:51:55.032Z,32.63
2017-09-28T21:54:23.135Z,33.80
2017-09-28T21:56:51.997Z,30.27
2017-09-28T21:59:20.113Z,32.00
2017-09-28T22:01:48.973Z,30.57
2017-09-28T22:04:17.060Z,28.90
2017-09-28T22:06:45.912Z,26.90
2017-09-28T22:09:14.007Z,28.27
2017-09-28T22:11:42.097Z,26.70
2017-09-28T22:14:10.212Z,27.07
2017-09-28T22:16:38.303Z,27.23
2017-09-28T22:19:06.398Z,29.20
2017-09-28T22:21:34.512Z,27.37
2017-09-28T22:24:03.388Z,26.57
2017-09-28T22:26:32.258Z,26.23
2017-09-28T22:29:00.353Z,27.60
2017-09-28T22:31:29.353Z,27.03
2017-09-28T22:33:58.204Z,25.67
2017-09-28T22:36:26.301Z,26.10
2017-09-28T22:38:54.379Z,25.23
2017-09-28T22:41:23.236Z,24.00
2017-09-28T22:43:51.321Z,25.57
2017-09-28T22:46:19.416Z,25.70
2017-09-28T22:48:47.484Z,25.93
2017-09-28T22:51:15.577Z,25.17
2017-09-28T22:53:44.435Z,25.20
2017-09-28T22:56:12.519Z,25.90
2017-09-28T22:58:40.596Z,26.97
2017-09-28T23:01:08.703Z,27.50
2017-09-28T23:03:36.795Z,26.97
2017-09-28T23:06:04.896Z,27.90
2017-09-28T23:08:32.968Z,25.40
2017-09-28T23:11:01.052Z,24.97
2017-09-28T23:13:29.128Z,23.50
2017-09-28T23:15:57.253Z,22.23
2017-09-28T23:18:25.331Z,22.00
2017-09-28T23:20:53.420Z,24.60
2017-09-28T23:23:21.492Z,23.60
2017-09-28T23:25:49.579Z,21.23
2017-09-28T23:28:17.661Z,22.40
2017-09-28T23:30:45.741Z,21.43
2017-09-28T23:33:14.604Z,20.37
2017-09-28T23:35:42.715Z,22.50
2017-09-28T23:38:11.564Z,19.73
2017-09-28T23:40:39.632Z,21.70
2017-09-28T23:43:07.726Z,21.03
2017-09-28T23:45:35.815Z,20.33
2017-09-28T23:48:04.671Z,21.03
2017-09-28T23:50:32.748Z,20.97
2017-09-28T23:53:00.840Z,19.87
2017-09-28T23:55:28.928Z,19.33
2017-09-28T23:57:57.786Z,18.23
